Time;durP1;ratioP1;P1;durP2;ratioP2;P2;SDS_P1;SDS_P2;PMS_P1;PMS_P2;Temp;Humidity;BMP_temperature;BMP_pressure;BME280_temperature;BME280_humidity;BME280_pressure;Samples;Min_cycle;Max_cycle;Signal;HPM_P1;HPM_P2
2022/03/30 00:00:57;;;;;;;;;;;;;;;;;;4996144;28;20365;-21
2022/03/30 00:03:25;;;;;;;;;;;;;;;;;;4995512;28;19917;-20
2022/03/30 00:05:52;;;;;;;;;;;;;;;;;;4995760;28;19918;-21
2022/03/30 00:08:18;;;;;;;;;;;;;;;;;;4995603;28;19992;-21
2022/03/30 00:10:46;;;;;;;;;;;;;;;;;;4995604;28;19918;-20
2022/03/30 00:13:12;;;;;;;;;;;;;;;;;;4996021;28;20360;-22
2022/03/30 00:15:38;;;;;;;;;;;;;;;;;;4995474;28;19953;-24
2022/03/30 00:18:07;;;;;;;;;;;;;;;;;;4995743;28;20271;-21
2022/03/30 00:20:33;;;;;;;;;;;;;;;;;;4995679;28;20255;-21
2022/03/30 00:23:00;;;;;;;;;;;;;;;;;;4995379;28;20349;-21
2022/03/30 00:25:27;;;;;;;;;;;;;;;;;;4978152;28;20300;-21
2022/03/30 00:27:53;;;;;;;;;;;;;;;;;;4995342;28;19920;-21
2022/03/30 00:30:20;;;;;;;;;;;;;;;;;;4995204;28;20005;-21
2022/03/30 00:32:46;;;;;;;;;;;;;;;;;;4998101;28;19917;-20
2022/03/30 00:35:12;;;;;;;;;;;;;;;;;;4982123;28;19914;-23
2022/03/30 00:37:38;;;;;;;;;;;;;;;;;;4999336;28;19996;-21
2022/03/30 00:40:04;;;;;;;;;;;;;;;;;;4999275;28;20288;-21
2022/03/30 00:42:32;;;;;;;;;;;;;;;;;;4999676;28;19910;-22
2022/03/30 00:44:58;;;;;;;;;;;;;;;;;;4999053;28;20332;-21
2022/03/30 00:47:24;;;;;;;;;;;;;;;;;;4999607;28;19914;-21
2022/03/30 00:49:51;;;;;;;;;;;;;;;;;;4999007;28;19914;-20
2022/03/30 00:52:17;;;;;;;;;;;;;;;;;;4999003;28;20256;-21
2022/03/30 00:54:45;;;;;;;;;;;;;;;;;;4999031;28;19914;-20
2022/03/30 00:57:11;;;;;;;;;;;;;;;;;;4998872;28;19993;-20
2022/03/30 00:59:37;;;;;;;;;;;;;;;;;;4998971;28;19976;-21
2022/03/30 01:02:03;;;;;;;;;;;;;;;;;;4981633;28;19914;-20
2022/03/30 01:04:31;;;;;;;;;;;;;;;;;;4998669;28;19926;-21
2022/03/30 01:06:57;;;;;;;;;;;;;;;;;;4981487;28;19976;-20
2022/03/30 01:09:25;;;;;;;;;;;;;;;;;;4981503;28;19910;-20
2022/03/30 01:11:51;;;;;;;;;;;;;;;;;;4998566;28;19924;-21
2022/03/30 01:14:18;;;;;;;;;;;;;;;;;;4999218;28;19980;-21
2022/03/30 01:16:44;;;;;;;;;;;;;;;;;;4981393;28;19980;-22
2022/03/30 01:19:10;;;;;;;;;;;;;;;;;;4999189;28;20009;-20
2022/03/30 01:21:37;;;;;;;;;;;;;;;;;;4998518;28;19996;-21
2022/03/30 01:24:03;;;;;;;;;;;;;;;;;;4980972;28;19922;-20
2022/03/30 01:26:29;;;;;;;;;;;;;;;;;;4998925;28;19914;-21
2022/03/30 01:28:55;;;;;;;;;;;;;;;;;;4998627;28;19914;-21
2022/03/30 01:34:06;;;;;;;;;;;;;;;;;;4998310;28;20264;-21
2022/03/30 01:36:33;;;;;;;;;;;;;;;;;;4998260;28;19917;-21
2022/03/30 01:38:59;;;;;;;;;;;;;;;;;;4998274;28;20013;-20
2022/03/30 01:41:25;;;;;;;;;;;;;;;;;;4998053;28;19917;-21
2022/03/30 01:43:51;;;;;;;;;;;;;;;;;;4997269;28;19910;-20
2022/03/30 01:46:17;;;;;;;;;;;;;;;;;;4998033;28;20360;-21
2022/03/30 01:48:44;;;;;;;;;;;;;;;;;;4998014;28;19914;-23
2022/03/30 01:51:10;;;;;;;;;;;;;;;;;;4998305;28;19910;-21
2022/03/30 01:53:37;;;;;;;;;;;;;;;;;;4998093;28;20325;-21
2022/03/30 01:56:05;;;;;;;;;;;;;;;;;;4997925;28;19936;-22
2022/03/30 01:58:31;;;;;;;;;;;;;;;;;;4998342;28;19933;-20
2022/03/30 02:00:57;;;;;;;;;;;;;;;;;;4997760;28;19984;-20
2022/03/30 02:03:23;;;;;;;;;;;;;;;;;;4997620;28;19924;-20
2022/03/30 02:05:50;;;;;;;;;;;;;;;;;;4997682;28;19929;-21
2022/03/30 02:08:18;;;;;;;;;;;;;;;;;;4997589;28;20000;-21
2022/03/30 02:10:44;;;;;;;;;;;;;;;;;;4997528;28;19917;-23
2022/03/30 02:13:11;;;;;;;;;;;;;;;;;;4997542;28;20260;-21
2022/03/30 02:15:37;;;;;;;;;;;;;;;;;;4980315;28;19929;-20
2022/03/30 02:18:03;;;;;;;;;;;;;;;;;;4997655;28;19910;-21
2022/03/30 02:20:29;;;;;;;;;;;;;;;;;;4997494;28;19918;-20
2022/03/30 02:22:56;;;;;;;;;;;;;;;;;;4997425;28;19918;-21
2022/03/30 02:25:23;;;;;;;;;;;;;;;;;;4997279;28;19925;-20
2022/03/30 02:27:51;;;;;;;;;;;;;;;;;;4997309;28;19914;-21
2022/03/30 02:30:18;;;;;;;;;;;;;;;;;;4997728;28;19917;-21
2022/03/30 02:32:45;;;;;;;;;;;;;;;;;;4997148;28;20012;-21
2022/03/30 02:35:12;;;;;;;;;;;;;;;;;;4997230;28;19978;-20
2022/03/30 02:37:38;;;;;;;;;;;;;;;;;;4997500;28;19913;-21
2022/03/30 02:40:04;;;;;;;;;;;;;;;;;;4997071;28;19917;-20
2022/03/30 02:42:30;;;;;;;;;;;;;;;;;;4996997;28;19920;-20
2022/03/30 02:44:57;;;;;;;;;;;;;;;;;;4996974;28;19968;-21
2022/03/30 02:50:09;;;;;;;;;;;;;;;;;;4956760;28;19957;-22
2022/03/30 02:52:36;;;;;;;;;;;;;;;;;;4996808;28;19922;-20
2022/03/30 02:55:02;;;;;;;;;;;;;;;;;;4995965;28;20001;-22
2022/03/30 02:57:29;;;;;;;;;;;;;;;;;;4996482;28;20001;-21
2022/03/30 02:59:55;;;;;;;;;;;;;;;;;;4996779;28;19921;-21
2022/03/30 03:02:22;;;;;;;;;;;;;;;;;;4997565;28;20237;-22
2022/03/30 03:04:50;;;;;;;;;;;;;;;;;;4996475;28;19948;-20
2022/03/30 03:07:16;;;;;;;;;;;;;;;;;;4996564;28;20004;-21
2022/03/30 03:09:42;;;;;;;;;;;;;;;;;;4996387;28;19921;-21
2022/03/30 03:12:10;;;;;;;;;;;;;;;;;;4996934;28;19914;-20
2022/03/30 03:14:36;;;;;;;;;;;;;;;;;;4996399;28;19996;-20
2022/03/30 03:17:04;;;;;;;;;;;;;;;;;;4996294;28;20009;-22
2022/03/30 03:19:32;;;;;;;;;;;;;;;;;;4996562;28;19921;-20
2022/03/30 03:21:58;;;;;;;;;;;;;;;;;;4996195;28;20344;-21
2022/03/30 03:24:25;;;;;;;;;;;;;;;;;;4996056;28;19968;-22
2022/03/30 03:26:52;;;;;;;;;;;;;;;;;;4996151;28;19949;-20
2022/03/30 03:29:18;;;;;;;;;;;;;;;;;;4979019;28;19921;-20
2022/03/30 03:31:46;;;;;;;;;;;;;;;;;;4996657;28;19918;-21
2022/03/30 03:34:13;;;;;;;;;;;;;;;;;;4996766;28;19918;-20
2022/03/30 03:36:39;;;;;;;;;;;;;;;;;;4995955;28;20064;-20
2022/03/30 03:39:07;;;;;;;;;;;;;;;;;;4996054;28;19909;-21
2022/03/30 03:41:34;;;;;;;;;;;;;;;;;;4995938;28;19914;-20
2022/03/30 03:44:00;;;;;;;;;;;;;;;;;;4995693;28;19925;-21
2022/03/30 03:46:28;;;;;;;;;;;;;;;;;;4995741;28;20007;-21
2022/03/30 03:48:54;;;;;;;;;;;;;;;;;;4995814;28;20365;-21
2022/03/30 03:51:20;;;;;;;;;;;;;;;;;;4996239;28;19968;-22
2022/03/30 03:53:48;;;;;;;;;;;;;;;;;;4995587;28;20004;-22
2022/03/30 03:56:14;;;;;;;;;;;;;;;;;;4995332;28;19914;-21
2022/03/30 03:58:41;;;;;;;;;;;;;;;;;;4996018;28;20001;-22
2022/03/30 04:01:09;;;;;;;;;;;;;;;;;;4978159;28;19918;-21
2022/03/30 04:03:35;;;;;;;;;;;;;;;;;;4977836;28;20344;-22
2022/03/30 04:06:02;;;;;;;;;;;;;;;;;;4995678;28;19917;-22
2022/03/30 04:08:29;;;;;;;;;;;;;;;;;;4978361;28;20382;-21
2022/03/30 04:10:55;;;;;;;;;;;;;;;;;;4995337;28;19929;-24
2022/03/30 04:13:21;;;;;;;;;;;;;;;;;;4977574;28;19910;-23
2022/03/30 04:15:47;;;;;;;;;;;;;;;;;;4994852;28;19918;-21
2022/03/30 04:18:13;;;;;;;;;;;;;;;;;;4994945;28;20036;-22
2022/03/30 04:20:39;;;;;;;;;;;;;;;;;;4995072;28;19913;-24
2022/03/30 04:23:06;;;;;;;;;;;;;;;;;;4994697;28;19922;-21
2022/03/30 04:25:35;;;;;;;;;;;;;;;;;;4995459;28;19917;-22
2022/03/30 04:28:01;;;;;;;;;;;;;;;;;;4995117;28;19950;-22
2022/03/30 04:30:28;;;;;;;;;;;;;;;;;;4995162;28;19941;-22
2022/03/30 04:32:54;;;;;;;;;;;;;;;;;;4978053;28;19918;-22
2022/03/30 04:35:26;;;;;;;;;;;;;;;;;;4994990;28;19913;-22
2022/03/30 04:37:53;;;;;;;;;;;;;;;;;;4995145;28;19910;-22
2022/03/30 04:40:20;;;;;;;;;;;;;;;;;;4994936;28;19914;-24
2022/03/30 04:42:46;;;;;;;;;;;;;;;;;;4994910;28;20355;-21
2022/03/30 04:45:15;;;;;;;;;;;;;;;;;;4994956;28;19953;-21
2022/03/30 04:47:41;;;;;;;;;;;;;;;;;;4994870;28;20341;-25
2022/03/30 04:50:09;;;;;;;;;;;;;;;;;;4995430;28;20000;-21
2022/03/30 04:52:35;;;;;;;;;;;;;;;;;;4994764;28;19920;-20
2022/03/30 04:57:53;;;;;;;;;;;;;;;;;;4994717;28;19972;-24
2022/03/30 05:00:19;;;;;;;;;;;;;;;;;;4994492;28;19925;-20
2022/03/30 05:02:45;;;;;;;;;;;;;;;;;;4994360;28;19914;-21
2022/03/30 05:05:15;;;;;;;;;;;;;;;;;;4977415;28;20057;-21
2022/03/30 05:07:41;;;;;;;;;;;;;;;;;;4994710;28;19914;-20
2022/03/30 05:10:07;;;;;;;;;;;;;;;;;;4994426;28;19918;-21
2022/03/30 05:12:48;;;;;;;;;;;;;;;;;;4994425;28;19914;-22
2022/03/30 05:18:07;;;;;;;;;;;;;;;;;;4995436;28;19942;-21
2022/03/30 05:20:36;;;;;;;;;;;;;;;;;;4980793;28;19914;-21
2022/03/30 05:23:03;;;;;;;;;;;;;;;;;;4997703;28;20009;-22
2022/03/30 05:28:22;;;;;;;;;;;;;;;;;;5340955;23;19936;-24
2022/03/30 05:30:51;;;;;;;;;;;;;;;;;;5017655;28;19913;-24
2022/03/30 05:33:19;;;;;;;;;;;;;;;;;;5017534;28;20008;-23
2022/03/30 05:35:48;;;;;;;;;;;;;;;;;;5017186;28;19940;-23
2022/03/30 05:38:16;;;;;;;;;;;;;;;;;;5017490;28;19932;-23
2022/03/30 05:40:42;;;;;;;;;;;;;;;;;;5017498;28;19913;-23
2022/03/30 05:43:10;;;;;;;;;;;;;;;;;;5016933;28;19910;-23
2022/03/30 05:45:36;;;;;;;;;;;;;;;;;;5017354;28;20336;-23
2022/03/30 05:48:07;;;;;;;;;;;;;;;;;;5017005;28;19963;-24
2022/03/30 05:50:33;;;;;;;;;;;;;;;;;;5017046;28;19917;-24
2022/03/30 05:52:59;;;;;;;;;;;;;;;;;;5016789;28;19914;-23
2022/03/30 05:55:26;;;;;;;;;;;;;;;;;;5016899;28;19969;-24
2022/03/30 05:57:52;;;;;;;;;;;;;;;;;;5016735;28;19937;-24
2022/03/30 06:00:18;;;;;;;;;;;;;;;;;;5016449;28;19940;-23
2022/03/30 06:02:44;;;;;;;;;;;;;;;;;;5017155;28;19969;-23
2022/03/30 06:05:10;;;;;;;;;;;;;;;;;;5016661;28;19917;-24
2022/03/30 06:07:37;;;;;;;;;;;;;;;;;;5016669;28;20296;-22
2022/03/30 06:10:04;;;;;;;;;;;;;;;;;;5016250;28;19918;-23
2022/03/30 06:12:30;;;;;;;;;;;;;;;;;;5015809;28;20328;-23
2022/03/30 06:14:58;;;;;;;;;;;;;;;;;;5016165;28;19913;-22
2022/03/30 06:17:28;;;;;;;;;;;;;;;;;;5015563;28;19920;-23
2022/03/30 06:19:59;;;;;;;;;;;;;;;;;;5015690;28;20312;-23
2022/03/30 06:22:29;;;;;;;;;;;;;;;;;;5015648;28;20007;-23
2022/03/30 06:24:58;;;;;;;;;;;;;;;;;;5015486;28;19949;-23
2022/03/30 06:27:24;;;;;;;;;;;;;;;;;;4997894;28;19909;-23
2022/03/30 06:29:51;;;;;;;;;;;;;;;;;;5016211;28;19944;-23
2022/03/30 06:32:19;;;;;;;;;;;;;;;;;;5016271;28;19995;-23
2022/03/30 06:34:45;;;;;;;;;;;;;;;;;;5015601;28;19920;-24
2022/03/30 06:37:12;;;;;;;;;;;;;;;;;;5016033;28;19951;-24
2022/03/30 06:39:38;;;;;;;;;;;;;;;;;;5016149;28;20285;-23
2022/03/30 06:42:05;;;;;;;;;;;;;;;;;;5016055;28;19918;-24
2022/03/30 06:44:32;;;;;;;;;;;;;;;;;;5015967;28;20071;-24
2022/03/30 06:46:59;;;;;;;;;;;;;;;;;;5016143;28;19913;-24
2022/03/30 06:49:25;;;;;;;;;;;;;;;;;;5016420;28;19909;-23
2022/03/30 06:51:52;;;;;;;;;;;;;;;;;;5016301;28;20236;-23
2022/03/30 06:54:18;;;;;;;;;;;;;;;;;;5016107;28;19979;-24
2022/03/30 06:56:46;;;;;;;;;;;;;;;;;;5016033;28;19913;-24
2022/03/30 06:59:14;;;;;;;;;;;;;;;;;;5015863;28;20370;-23
2022/03/30 07:01:40;;;;;;;;;;;;;;;;;;5016213;28;19920;-24
2022/03/30 07:04:08;;;;;;;;;;;;;;;;;;5015877;28;19925;-24
2022/03/30 07:06:35;;;;;;;;;;;;;;;;;;4998534;28;19913;-23
2022/03/30 07:11:48;;;;;;;;;;;;;;;;;;5015861;28;19967;-23
2022/03/30 07:14:14;;;;;;;;;;;;;;;;;;5016142;28;19910;-23
2022/03/30 07:16:40;;;;;;;;;;;;;;;;;;5015489;28;20400;-24
2022/03/30 07:19:08;;;;;;;;;;;;;;;;;;5015673;28;19992;-24
2022/03/30 07:21:35;;;;;;;;;;;;;;;;;;5015790;28;20263;-24
2022/03/30 07:24:01;;;;;;;;;;;;;;;;;;4998011;28;20229;-24
2022/03/30 07:26:32;;;;;;;;;;;;;;;;;;5015261;28;19996;-24
2022/03/30 07:29:02;;;;;;;;;;;;;;;;;;4997573;28;19928;-23
2022/03/30 07:31:39;;;;;;;;;;;;;;;;;;4998080;28;19913;-24
2022/03/30 07:34:05;;;;;;;;;;;;;;;;;;5015262;28;19909;-24
2022/03/30 07:36:32;;;;;;;;;;;;;;;;;;5015140;28;20320;-23
2022/03/30 07:39:00;;;;;;;;;;;;;;;;;;5014113;28;21461;-24
2022/03/30 07:41:26;;;;;;;;;;;;;;;;;;5014794;28;19914;-23
2022/03/30 07:43:52;;;;;;;;;;;;;;;;;;5015134;28;20221;-23
2022/03/30 07:46:19;;;;;;;;;;;;;;;;;;5015424;28;19928;-23
2022/03/30 07:48:46;;;;;;;;;;;;;;;;;;5014820;28;19913;-23
2022/03/30 07:51:14;;;;;;;;;;;;;;;;;;4997539;28;19960;-23
2022/03/30 07:53:40;;;;;;;;;;;;;;;;;;5014868;28;19909;-23
2022/03/30 07:56:06;;;;;;;;;;;;;;;;;;5014819;28;19925;-23
2022/03/30 07:58:32;;;;;;;;;;;;;;;;;;4997199;28;20507;-23
2022/03/30 08:00:59;;;;;;;;;;;;;;;;;;5015333;28;19913;-23
2022/03/30 08:03:26;;;;;;;;;;;;;;;;;;4997285;28;19913;-23
2022/03/30 08:05:52;;;;;;;;;;;;;;;;;;5014563;28;19963;-23
2022/03/30 08:08:22;;;;;;;;;;;;;;;;;;5014485;28;19928;-22
2022/03/30 08:13:42;;;;;;;;;;;;;;;;;;5014856;28;20001;-23
2022/03/30 08:16:08;;;;;;;;;;;;;;;;;;5014404;28;20209;-22
2022/03/30 08:18:35;;;;;;;;;;;;;;;;;;4997110;28;19913;-23
2022/03/30 08:40:40;;;;;;;;;;;;;;;;;;4994042;28;20047;-24
2022/03/30 08:43:06;;;;;;;;;;;;;;;;;;4993955;28;19921;-23
2022/03/30 08:45:32;;;;;;;;;;;;;;;;;;4976522;28;19937;-23
2022/03/30 08:47:58;;;;;;;;;;;;;;;;;;4993786;28;19955;-26
2022/03/30 08:50:24;;;;;;;;;;;;;;;;;;4993689;28;20315;-24
2022/03/30 09:01:13;;;;;;;;;;;;;;;;;;4997508;28;19925;-25
2022/03/30 09:03:39;;;;;;;;;;;;;;;;;;4997288;28;20367;-25
2022/03/30 09:06:06;;;;;;;;;;;;;;;;;;4997277;28;19914;-25
2022/03/30 09:08:34;;;;;;;;;;;;;;;;;;4979860;28;19939;-25
2022/03/30 09:11:00;;;;;;;;;;;;;;;;;;4997470;28;19914;-25
2022/03/30 09:13:27;;;;;;;;;;;;;;;;;;4996941;28;19920;-25
2022/03/30 09:15:53;;;;;;;;;;;;;;;;;;4997207;28;20001;-34
2022/03/30 09:18:20;;;;;;;;;;;;;;;;;;4997123;28;20237;-25
2022/03/30 09:20:47;;;;;;;;;;;;;;;;;;4997340;28;19920;-25
2022/03/30 09:23:14;;;;;;;;;;;;;;;;;;4997720;28;19921;-25
2022/03/30 09:25:40;;;;;;;;;;;;;;;;;;4980388;28;19918;-25
2022/03/30 09:28:08;;;;;;;;;;;;;;;;;;4980515;28;20001;-25
2022/03/30 09:30:35;;;;;;;;;;;;;;;;;;4997950;28;19996;-25
2022/03/30 09:33:01;;;;;;;;;;;;;;;;;;4980473;28;19925;-25
2022/03/30 09:35:28;;;;;;;;;;;;;;;;;;4997862;28;20332;-25
2022/03/30 09:37:54;;;;;;;;;;;;;;;;;;4997689;28;19918;-24
2022/03/30 09:40:24;;;;;;;;;;;;;;;;;;4997550;28;19921;-24
2022/03/30 09:42:50;;;;;;;;;;;;;;;;;;4980310;28;20027;-24
2022/03/30 09:45:16;;;;;;;;;;;;;;;;;;4997426;28;19928;-25
2022/03/30 09:47:44;;;;;;;;;;;;;;;;;;4997625;28;19910;-24
2022/03/30 09:50:12;;;;;;;;;;;;;;;;;;4997687;28;19968;-24
2022/03/30 09:52:39;;;;;;;;;;;;;;;;;;4979938;28;20352;-25
2022/03/30 09:55:06;;;;;;;;;;;;;;;;;;4997610;28;19997;-24
2022/03/30 09:57:34;;;;;;;;;;;;;;;;;;4997229;28;19969;-24
2022/03/30 10:00:05;;;;;;;;;;;;;;;;;;4997182;28;19921;-24
2022/03/30 10:02:31;;;;;;;;;;;;;;;;;;4997530;28;19910;-24
2022/03/30 10:04:57;;;;;;;;;;;;;;;;;;4996715;28;19925;-24
2022/03/30 10:07:26;;;;;;;;;;;;;;;;;;4979999;28;19910;-24
2022/03/30 10:09:52;;;;;;;;;;;;;;;;;;4997232;28;19914;-25
2022/03/30 10:12:19;;;;;;;;;;;;;;;;;;4997026;28;19918;-25
2022/03/30 10:14:46;;;;;;;;;;;;;;;;;;4997353;28;20288;-24
2022/03/30 10:17:13;;;;;;;;;;;;;;;;;;4997143;28;20336;-24
2022/03/30 10:19:42;;;;;;;;;;;;;;;;;;4996885;28;19910;-24
2022/03/30 10:24:53;;;;;;;;;;;;;;;;;;5002603;28;19929;-25
2022/03/30 10:27:23;;;;;;;;;;;;;;;;;;4996794;28;19914;-25
2022/03/30 10:29:52;;;;;;;;;;;;;;;;;;4997046;28;19914;-25
2022/03/30 10:38:03;;;;;;;;;;;;;;;;;;5001356;28;19940;-25
2022/03/30 10:49:00;;;;;;;;;;;;;;;;;;5016740;28;19968;-25
2022/03/30 10:51:35;;;;;;;;;;;;;;;;;;4976049;28;19922;-25
2022/03/30 10:59:41;;;;;;;;;;;;;;;;;;5015366;28;20335;-26
2022/03/30 11:02:07;;;;;;;;;;;;;;;;;;5014770;28;20351;-26
2022/03/30 11:04:34;;;;;;;;;;;;;;;;;;5014268;28;20307;-26
2022/03/30 11:07:01;;;;;;;;;;;;;;;;;;5014787;28;19910;-26
2022/03/30 11:09:32;;;;;;;;;;;;;;;;;;5014829;28;19913;-26
2022/03/30 11:11:58;;;;;;;;;;;;;;;;;;5014453;28;19909;-27
2022/03/30 11:14:24;;;;;;;;;;;;;;;;;;5014484;28;20244;-26
2022/03/30 11:16:51;;;;;;;;;;;;;;;;;;5013577;28;19910;-26
2022/03/30 11:19:18;;;;;;;;;;;;;;;;;;5015328;28;19913;-27
2022/03/30 11:21:46;;;;;;;;;;;;;;;;;;5014936;28;19980;-26
2022/03/30 11:24:13;;;;;;;;;;;;;;;;;;5015327;28;19909;-26
2022/03/30 11:26:39;;;;;;;;;;;;;;;;;;5015214;28;20124;-26
2022/03/30 11:29:07;;;;;;;;;;;;;;;;;;4997701;28;20224;-26
2022/03/30 11:31:33;;;;;;;;;;;;;;;;;;5015312;28;19950;-26
2022/03/30 11:33:59;;;;;;;;;;;;;;;;;;5015201;28;20221;-26
2022/03/30 11:36:25;;;;;;;;;;;;;;;;;;5015002;28;19924;-26
2022/03/30 11:38:51;;;;;;;;;;;;;;;;;;5014953;28;19925;-26
2022/03/30 11:41:19;;;;;;;;;;;;;;;;;;5014870;28;19924;-27
2022/03/30 11:46:30;;;;;;;;;;;;;;;;;;5014920;28;20000;-28
2022/03/30 11:48:57;;;;;;;;;;;;;;;;;;5014605;28;19910;-27
2022/03/30 11:51:36;;;;;;;;;;;;;;;;;;5014691;28;20004;-27
2022/03/30 11:56:53;;;;;;;;;;;;;;;;;;5014842;28;20336;-26
2022/03/30 12:02:12;;;;;;;;;;;;;;;;;;5014571;28;19935;-25
2022/03/30 12:04:39;;;;;;;;;;;;;;;;;;5014797;28;19917;-25
2022/03/30 12:09:57;;;;;;;;;;;;;;;;;;5014670;28;20398;-26
2022/03/30 12:12:35;;;;;;;;;;;;;;;;;;5014364;28;19913;-26
2022/03/30 12:15:02;;;;;;;;;;;;;;;;;;5014810;28;20244;-26
2022/03/30 12:17:28;;;;;;;;;;;;;;;;;;5014131;28;20319;-26
2022/03/30 12:19:54;;;;;;;;;;;;;;;;;;4996819;28;19925;-23
2022/03/30 12:22:22;;;;;;;;;;;;;;;;;;5014820;28;20385;-24
2022/03/30 12:24:53;;;;;;;;;;;;;;;;;;5014033;28;19924;-24
2022/03/30 12:27:21;;;;;;;;;;;;;;;;;;5016966;28;19967;-26
2022/03/30 12:29:47;;;;;;;;;;;;;;;;;;5021365;28;20316;-26
2022/03/30 12:32:15;;;;;;;;;;;;;;;;;;5021028;28;19913;-25
2022/03/30 12:34:46;;;;;;;;;;;;;;;;;;5021227;28;19921;-25
2022/03/30 12:37:14;;;;;;;;;;;;;;;;;;5021472;28;19944;-25
2022/03/30 12:39:40;;;;;;;;;;;;;;;;;;5020516;28;20404;-25
2022/03/30 12:42:06;;;;;;;;;;;;;;;;;;5020827;28;19968;-25
2022/03/30 12:44:36;;;;;;;;;;;;;;;;;;5020716;28;19929;-25
2022/03/30 12:47:02;;;;;;;;;;;;;;;;;;5003222;28;19992;-25
2022/03/30 12:49:28;;;;;;;;;;;;;;;;;;5020872;28;19964;-25
2022/03/30 12:51:54;;;;;;;;;;;;;;;;;;5020920;28;19917;-25
2022/03/30 12:54:21;;;;;;;;;;;;;;;;;;5020811;28;19949;-24
2022/03/30 12:56:47;;;;;;;;;;;;;;;;;;5020745;28;20316;-25
2022/03/30 12:59:13;;;;;;;;;;;;;;;;;;5020742;28;20251;-24
2022/03/30 13:01:39;;;;;;;;;;;;;;;;;;5020506;28;20406;-25
2022/03/30 13:04:05;;;;;;;;;;;;;;;;;;5020873;28;19921;-24
2022/03/30 13:06:32;;;;;;;;;;;;;;;;;;5003360;28;20000;-25
2022/03/30 13:09:00;;;;;;;;;;;;;;;;;;5003153;28;19921;-24
2022/03/30 13:11:27;;;;;;;;;;;;;;;;;;5007243;28;20019;-25
2022/03/30 13:22:24;;;;;;;;;;;;;;;;;;5020499;28;19940;-25
2022/03/30 13:24:54;;;;;;;;;;;;;;;;;;5020294;28;19917;-25
2022/03/30 13:27:25;;;;;;;;;;;;;;;;;;5020412;28;19913;-26
2022/03/30 13:29:54;;;;;;;;;;;;;;;;;;5020813;28;19913;-24
2022/03/30 13:32:22;;;;;;;;;;;;;;;;;;5020351;28;19921;-24
2022/03/30 13:34:48;;;;;;;;;;;;;;;;;;5020138;28;19914;-24
2022/03/30 13:37:15;;;;;;;;;;;;;;;;;;5020058;28;19917;-24
2022/03/30 13:39:42;;;;;;;;;;;;;;;;;;5016890;28;20019;-24
2022/03/30 13:42:08;;;;;;;;;;;;;;;;;;4999834;28;19978;-24
2022/03/30 13:44:50;;;;;;;;;;;;;;;;;;5017228;28;19925;-23
2022/03/30 13:47:17;;;;;;;;;;;;;;;;;;4999923;28;19909;-24
2022/03/30 13:49:44;;;;;;;;;;;;;;;;;;5017269;28;20312;-24
2022/03/30 13:52:14;;;;;;;;;;;;;;;;;;5017161;28;19961;-24
2022/03/30 13:54:40;;;;;;;;;;;;;;;;;;4999694;28;20298;-24
2022/03/30 13:57:08;;;;;;;;;;;;;;;;;;5017074;28;19920;-24
2022/03/30 14:02:20;;;;;;;;;;;;;;;;;;5017023;28;19920;-26
2022/03/30 14:04:46;;;;;;;;;;;;;;;;;;4999351;28;19928;-25
2022/03/30 14:07:13;;;;;;;;;;;;;;;;;;5016517;28;19909;-26
2022/03/30 14:09:41;;;;;;;;;;;;;;;;;;5016609;28;19914;-25
2022/03/30 14:12:07;;;;;;;;;;;;;;;;;;5016617;28;19936;-25
2022/03/30 14:14:34;;;;;;;;;;;;;;;;;;5016877;28;20007;-25
2022/03/30 14:17:02;;;;;;;;;;;;;;;;;;5016701;28;20368;-25
2022/03/30 14:19:35;;;;;;;;;;;;;;;;;;4999289;28;20302;-25
2022/03/30 14:22:01;;;;;;;;;;;;;;;;;;5016518;28;19921;-25
2022/03/30 14:24:27;;;;;;;;;;;;;;;;;;5016422;28;20252;-25
2022/03/30 14:26:55;;;;;;;;;;;;;;;;;;5017407;28;20240;-25
2022/03/30 14:29:21;;;;;;;;;;;;;;;;;;5016213;28;19975;-25
2022/03/30 14:31:47;;;;;;;;;;;;;;;;;;5016283;28;20336;-25
2022/03/30 14:34:14;;;;;;;;;;;;;;;;;;5016499;28;19909;-25
2022/03/30 14:36:40;;;;;;;;;;;;;;;;;;5016239;28;19924;-24
2022/03/30 14:39:08;;;;;;;;;;;;;;;;;;5015741;28;19921;-25
2022/03/30 14:41:34;;;;;;;;;;;;;;;;;;5016338;28;19991;-24
2022/03/30 14:44:00;;;;;;;;;;;;;;;;;;5016134;28;19919;-25
2022/03/30 14:46:28;;;;;;;;;;;;;;;;;;5015627;28;19925;-24
2022/03/30 14:48:56;;;;;;;;;;;;;;;;;;5016198;28;20028;-25
2022/03/30 14:51:22;;;;;;;;;;;;;;;;;;5014778;28;19914;-25
2022/03/30 14:53:50;;;;;;;;;;;;;;;;;;4998566;28;19910;-25
2022/03/30 14:56:16;;;;;;;;;;;;;;;;;;4998469;28;20019;-25
2022/03/30 14:58:42;;;;;;;;;;;;;;;;;;5015859;28;19918;-24
2022/03/30 15:01:10;;;;;;;;;;;;;;;;;;5015573;28;19933;-24
2022/03/30 15:03:36;;;;;;;;;;;;;;;;;;4998231;28;19924;-24
2022/03/30 15:06:02;;;;;;;;;;;;;;;;;;5015382;28;19917;-25
2022/03/30 15:08:31;;;;;;;;;;;;;;;;;;5015218;28;19913;-24
2022/03/30 15:10:59;;;;;;;;;;;;;;;;;;5015211;28;20371;-24
2022/03/30 15:13:25;;;;;;;;;;;;;;;;;;4997535;28;19937;-25
2022/03/30 15:15:53;;;;;;;;;;;;;;;;;;5015272;28;20317;-24
2022/03/30 15:18:22;;;;;;;;;;;;;;;;;;5015018;28;19913;-24
2022/03/30 15:20:49;;;;;;;;;;;;;;;;;;5014940;28;19920;-24
2022/03/30 15:23:15;;;;;;;;;;;;;;;;;;5014924;28;19913;-25
2022/03/30 15:25:43;;;;;;;;;;;;;;;;;;5014846;28;20296;-25
2022/03/30 15:28:09;;;;;;;;;;;;;;;;;;5014889;28;19936;-25
2022/03/30 15:30:36;;;;;;;;;;;;;;;;;;4997419;28;19953;-25
2022/03/30 15:33:02;;;;;;;;;;;;;;;;;;5014865;28;19909;-24
2022/03/30 15:35:28;;;;;;;;;;;;;;;;;;5014919;28;20006;-24
2022/03/30 15:37:57;;;;;;;;;;;;;;;;;;5014862;28;19928;-24
2022/03/30 15:40:23;;;;;;;;;;;;;;;;;;5015220;28;19983;-25
2022/03/30 15:42:51;;;;;;;;;;;;;;;;;;5015142;28;19932;-24
2022/03/30 15:45:20;;;;;;;;;;;;;;;;;;4997943;28;20378;-24
2022/03/30 15:47:46;;;;;;;;;;;;;;;;;;5015235;28;19921;-24
2022/03/30 15:50:12;;;;;;;;;;;;;;;;;;5014971;28;19913;-24
2022/03/30 15:52:39;;;;;;;;;;;;;;;;;;5015307;28;19910;-25
2022/03/30 15:55:05;;;;;;;;;;;;;;;;;;5014919;28;20012;-25
2022/03/30 15:57:32;;;;;;;;;;;;;;;;;;5015048;28;20329;-25
2022/03/30 15:59:58;;;;;;;;;;;;;;;;;;5014807;28;19955;-25
2022/03/30 16:02:24;;;;;;;;;;;;;;;;;;5014632;28;20012;-25
2022/03/30 16:04:50;;;;;;;;;;;;;;;;;;5014703;28;19958;-24
2022/03/30 16:07:17;;;;;;;;;;;;;;;;;;4997612;28;19917;-25
2022/03/30 16:09:44;;;;;;;;;;;;;;;;;;5014544;28;19914;-25
2022/03/30 16:15:01;;;;;;;;;;;;;;;;;;5015092;28;20227;-25
2022/03/30 16:17:28;;;;;;;;;;;;;;;;;;5014591;28;19913;-25
2022/03/30 16:20:17;;;;;;;;;;;;;;;;;;4997512;28;19975;-25
2022/03/30 16:22:40;;;;;;;;;;;;;;;;;;5014337;28;20008;-25
2022/03/30 16:25:07;;;;;;;;;;;;;;;;;;5014544;28;19977;-25
2022/03/30 16:27:33;;;;;;;;;;;;;;;;;;5014489;28;20292;-25
2022/03/30 16:29:59;;;;;;;;;;;;;;;;;;5014527;28;20360;-23
2022/03/30 16:32:25;;;;;;;;;;;;;;;;;;4996807;28;19913;-26
2022/03/30 16:34:51;;;;;;;;;;;;;;;;;;5014522;28;19952;-24
2022/03/30 16:37:17;;;;;;;;;;;;;;;;;;5014203;28;19917;-23
2022/03/30 16:39:45;;;;;;;;;;;;;;;;;;5014060;28;19922;-23
2022/03/30 16:42:11;;;;;;;;;;;;;;;;;;5014433;28;19914;-23
2022/03/30 16:44:38;;;;;;;;;;;;;;;;;;5014639;28;19928;-24
2022/03/30 16:47:06;;;;;;;;;;;;;;;;;;4996990;28;20051;-24
2022/03/30 16:49:32;;;;;;;;;;;;;;;;;;5014512;28;19976;-24
2022/03/30 16:52:02;;;;;;;;;;;;;;;;;;5014573;28;19932;-24
2022/03/30 16:54:33;;;;;;;;;;;;;;;;;;5014187;28;19913;-23
2022/03/30 16:57:01;;;;;;;;;;;;;;;;;;5014420;28;19918;-24
2022/03/30 16:59:27;;;;;;;;;;;;;;;;;;5014427;28;19921;-23
2022/03/30 17:01:54;;;;;;;;;;;;;;;;;;5014076;28;19914;-24
2022/03/30 17:04:21;;;;;;;;;;;;;;;;;;5013927;28;19917;-38
2022/03/30 17:06:47;;;;;;;;;;;;;;;;;;5013820;28;19917;-26
2022/03/30 17:11:59;;;;;;;;;;;;;;;;;;5014005;28;19991;-24
2022/03/30 17:14:26;;;;;;;;;;;;;;;;;;5015507;28;19914;-28
2022/03/30 17:16:53;;;;;;;;;;;;;;;;;;5017762;28;19920;-31
2022/03/30 17:19:19;;;;;;;;;;;;;;;;;;5017966;28;19914;-24
2022/03/30 17:21:45;;;;;;;;;;;;;;;;;;5017594;28;19913;-27
2022/03/30 17:24:12;;;;;;;;;;;;;;;;;;5017962;28;20205;-27
2022/03/30 17:26:38;;;;;;;;;;;;;;;;;;5017516;28;19917;-26
2022/03/30 17:29:04;;;;;;;;;;;;;;;;;;5017493;28;20209;-24
2022/03/30 17:31:31;;;;;;;;;;;;;;;;;;5017878;28;19914;-26
2022/03/30 17:34:00;;;;;;;;;;;;;;;;;;5017594;28;19909;-31
2022/03/30 17:36:31;;;;;;;;;;;;;;;;;;5000155;28;19910;-28
2022/03/30 17:38:57;;;;;;;;;;;;;;;;;;5017031;28;20382;-29
2022/03/30 17:41:23;;;;;;;;;;;;;;;;;;5017277;28;20000;-28
2022/03/30 17:43:51;;;;;;;;;;;;;;;;;;5016522;28;19910;-27
2022/03/30 17:46:17;;;;;;;;;;;;;;;;;;5016435;28;19956;-30
2022/03/30 17:54:25;;;;;;;;;;;;;;;;;;4999564;28;19914;-31
2022/03/30 17:56:52;;;;;;;;;;;;;;;;;;5016380;28;19913;-27
2022/03/30 17:59:19;;;;;;;;;;;;;;;;;;5016440;28;19909;-26
2022/03/30 18:01:46;;;;;;;;;;;;;;;;;;5016239;28;19928;-29
2022/03/30 18:04:13;;;;;;;;;;;;;;;;;;4999000;28;19921;-27
2022/03/30 18:06:39;;;;;;;;;;;;;;;;;;5016194;28;19928;-25
2022/03/30 18:09:06;;;;;;;;;;;;;;;;;;4998846;28;20012;-28
2022/03/30 18:11:32;;;;;;;;;;;;;;;;;;5016235;28;19924;-28
2022/03/30 18:13:58;;;;;;;;;;;;;;;;;;5016150;28;19909;-33
2022/03/30 18:16:25;;;;;;;;;;;;;;;;;;5016395;28;19918;-33
2022/03/30 18:18:51;;;;;;;;;;;;;;;;;;5016086;28;19909;-30
2022/03/30 18:21:17;;;;;;;;;;;;;;;;;;4998652;28;19914;-29
2022/03/30 18:23:43;;;;;;;;;;;;;;;;;;4998669;28;19921;-27
2022/03/30 18:26:09;;;;;;;;;;;;;;;;;;5015971;28;19961;-29
2022/03/30 18:28:35;;;;;;;;;;;;;;;;;;4999093;28;19993;-26